KHRI

Details ICAO KHRI
Name HERMISTON MUNI
Region United States
Timezone America/Los_Angeles (UTC-8.0)
Plans Departing 3
Arriving 1
Stats Elevation 644 ft / 196 m (AMSL)
Location 45.828217° -119.259164°
Runways 1
Magnetic Variation 14.656° E
Sunrise 2017-12-13 15:31:39 UTC / 2017-12-13 07:31:39 Local
Sunset 2017-12-14 00:13:58 UTC / 2017-12-13 16:13:58 Local
Advertisement - Login to hide

Runways

ID Width Length Bearing (true) Bearing (mag) Surface Threshold Offset Overrun Length
04 75 ft / 23 m 4,491 ft / 1,369 m 62.26° 47.60° Asphalt 0 ft / 0 m 0 ft / 0 m
22 75 ft / 23 m 4,491 ft / 1,369 m 242.27° 227.61° Asphalt 0 ft / 0 m 0 ft / 0 m

Map

Weather


0- 5 10 15 20 25 30 35+ Temperature / ° C

Clouds and Precipitation
Forecast for 2017-12-14 00:00 UTC. Updated 2 hours ago

Ground ~20,000 ft ~40,000 ft Winds

METAR

KHRI 132053Z AUTO 17003KT 8SM OVC019 00/M02 A3058 RMK AO2 SLP362 T00001022 58007

TAF

Not found

Frequencies

Recorded 135.22 MHz ASOS
Approach 133.15 MHz CHINOOK APP/DEP
Unicom 122.80 MHz CTAF/UNICOM
Warning: Do not use this data for real-world aviation or navigation. No guarantee of current accuracy is given.